createdAt,value
2023-03-29T00:02:19.752Z,101467.81
2023-03-29T00:04:53.648Z,101336.06
2023-03-29T00:07:26.567Z,101466.56
2023-03-29T00:09:58.620Z,101462.56
2023-03-29T00:12:31.472Z,101358.19
2023-03-29T00:15:06.598Z,101387.31
2023-03-29T00:17:38.952Z,101418.09
2023-03-29T00:20:12.578Z,101424.22
2023-03-29T00:22:47.073Z,101357.53
2023-03-29T00:25:19.076Z,101434.44
2023-03-29T00:27:51.217Z,101433.91
2023-03-29T00:30:23.168Z,101431.34
2023-03-29T00:32:58.137Z,101372.78
2023-03-29T00:35:31.973Z,101358.13
2023-03-29T00:38:06.251Z,101420.41
2023-03-29T00:40:44.784Z,101435.69
2023-03-29T00:43:16.897Z,101367.47
2023-03-29T00:45:48.905Z,101425.47
2023-03-29T00:48:26.051Z,101418.84
2023-03-29T00:51:10.308Z,101420.34
2023-03-29T00:53:50.074Z,101427.03
2023-03-29T00:56:29.952Z,101321.91
2023-03-29T00:59:11.181Z,101420.88
2023-03-29T01:01:56.960Z,101376.78
2023-03-29T01:04:47.700Z,101355.13
2023-03-29T01:07:48.302Z,101380.25
2023-03-29T01:10:34.805Z,101411.97
2023-03-29T01:13:18.181Z,101397.81
2023-03-29T01:15:51.272Z,101373.53
2023-03-29T01:18:23.391Z,101400.72
2023-03-29T01:22:05.587Z,101409.94
2023-03-29T01:25:24.680Z,101406.31
2023-03-29T01:28:21.306Z,101338.13
2023-03-29T01:31:13.276Z,101401.28
2023-03-29T01:33:53.916Z,101266.97
2023-03-29T01:36:39.646Z,101381.66
2023-03-29T01:39:11.761Z,101378.28
2023-03-29T01:42:09.092Z,101375.59
2023-03-29T01:45:17.664Z,101371.28
2023-03-29T01:48:16.466Z,101368.09
2023-03-29T01:50:56.887Z,101362.22
2023-03-29T01:53:56.341Z,101360.19
2023-03-29T01:56:34.285Z,101331.94
2023-03-29T01:59:16.224Z,101353.88
2023-03-29T02:01:58.491Z,101270.44
2023-03-29T02:04:38.058Z,101354.19
2023-03-29T02:07:10.743Z,101347.28
2023-03-29T02:09:44.210Z,101348.69
2023-03-29T02:12:19.985Z,101233.97
2023-03-29T02:14:52.040Z,101218.03
2023-03-29T02:17:27.630Z,101307.22
2023-03-29T02:20:17.586Z,101277.81
2023-03-29T02:23:10.153Z,101286.78
2023-03-29T02:25:45.799Z,101282.56
2023-03-29T02:28:17.955Z,101329.78
2023-03-29T02:31:21.255Z,101324.50
2023-03-29T02:34:11.303Z,101310.34
2023-03-29T02:36:58.978Z,101314.59
2023-03-29T02:39:34.697Z,101226.53
2023-03-29T02:42:09.316Z,101301.50
2023-03-29T02:44:45.544Z,101223.19
2023-03-29T02:47:31.512Z,101282.41
2023-03-29T02:50:04.456Z,101225.03
2023-03-29T02:52:42.708Z,101227.31
2023-03-29T02:55:18.842Z,101288.72
2023-03-29T02:57:50.925Z,101222.25
2023-03-29T03:00:23.360Z,101193.97
2023-03-29T03:02:56.131Z,101276.16
2023-03-29T03:05:28.121Z,101195.38
2023-03-29T03:08:00.347Z,101276.94
2023-03-29T03:10:33.703Z,101282.25
2023-03-29T03:13:06.215Z,101262.53
2023-03-29T03:15:42.814Z,101249.97
2023-03-29T03:18:18.806Z,101242.63
2023-03-29T03:20:59.478Z,101272.19
2023-03-29T03:23:32.246Z,101204.78
2023-03-29T03:26:06.593Z,101188.84
2023-03-29T03:28:39.148Z,101242.19
2023-03-29T03:31:11.345Z,101259.41
2023-03-29T03:33:43.667Z,101245.34
2023-03-29T03:36:15.988Z,101264.22
2023-03-29T03:38:48.001Z,101228.31
2023-03-29T03:41:20.183Z,101229.22
2023-03-29T03:43:52.259Z,101268.84
2023-03-29T03:46:24.323Z,101240.88
2023-03-29T03:48:57.445Z,101211.22
2023-03-29T03:51:29.699Z,101234.59
2023-03-29T03:54:02.042Z,101260.75
2023-03-29T03:56:34.423Z,101265.28
2023-03-29T03:59:07.345Z,101229.34
2023-03-29T04:01:43.512Z,101168.66
2023-03-29T04:04:16.599Z,101262.13
2023-03-29T04:06:48.823Z,101119.53
2023-03-29T04:09:22.735Z,101167.09
2023-03-29T04:11:57.177Z,101241.63
2023-03-29T04:14:31.738Z,101071.75
2023-03-29T04:17:03.752Z,101248.06
2023-03-29T04:19:38.587Z,101241.91
2023-03-29T04:22:10.572Z,101242.44
2023-03-29T04:24:42.580Z,101250.75
2023-03-29T04:27:14.543Z,101128.06
2023-03-29T04:29:46.948Z,101085.16
2023-03-29T04:32:19.028Z,101236.03
2023-03-29T04:34:51.208Z,101245.81
2023-03-29T04:37:25.810Z,101244.00
2023-03-29T04:40:00.394Z,101241.53
2023-03-29T04:42:32.319Z,101210.16
2023-03-29T04:45:07.100Z,101233.19
2023-03-29T04:47:39.931Z,101210.97
2023-03-29T04:50:13.946Z,101166.97
2023-03-29T04:52:46.180Z,101097.56
2023-03-29T04:55:18.278Z,101233.44
2023-03-29T04:57:50.250Z,101230.00
2023-03-29T05:00:27.380Z,101231.03
2023-03-29T05:02:59.687Z,101230.09
2023-03-29T05:05:31.843Z,101229.22
2023-03-29T05:08:04.426Z,101220.72
2023-03-29T05:10:36.828Z,101207.47
2023-03-29T05:13:09.034Z,101190.25
2023-03-29T05:15:42.937Z,101219.81
2023-03-29T05:18:14.939Z,101199.97
2023-03-29T05:20:47.316Z,101211.91
2023-03-29T05:23:20.231Z,101231.19
2023-03-29T05:25:53.711Z,101085.16
2023-03-29T05:28:26.180Z,101202.59
2023-03-29T05:31:06.730Z,101228.56
2023-03-29T05:33:38.692Z,101227.75
2023-03-29T05:36:16.456Z,101229.84
2023-03-29T05:38:48.478Z,101216.09
2023-03-29T05:41:20.784Z,101205.34
2023-03-29T05:43:52.861Z,101217.00
2023-03-29T05:46:24.849Z,101244.06
2023-03-29T05:48:56.947Z,101164.13
2023-03-29T05:51:29.412Z,101155.44
2023-03-29T05:54:02.075Z,101241.56
2023-03-29T05:56:34.131Z,101127.66
2023-03-29T05:59:06.349Z,101209.41
2023-03-29T06:01:41.820Z,101171.59
2023-03-29T06:04:15.473Z,101240.09
2023-03-29T06:06:48.637Z,101237.59
2023-03-29T06:09:20.699Z,101109.38
2023-03-29T06:11:52.968Z,101212.47
2023-03-29T06:14:25.107Z,101243.00
2023-03-29T06:17:01.797Z,101218.97
2023-03-29T06:19:34.107Z,101177.53
2023-03-29T06:22:06.342Z,101239.56
2023-03-29T06:24:38.748Z,101223.84
2023-03-29T06:27:10.733Z,101202.97
2023-03-29T06:29:43.411Z,101259.38
2023-03-29T06:32:16.046Z,101252.41
2023-03-29T06:34:48.105Z,101159.19
2023-03-29T06:37:21.526Z,101228.69
2023-03-29T06:39:57.003Z,101242.44
2023-03-29T06:42:29.133Z,101129.56
2023-03-29T06:45:01.175Z,101244.28
2023-03-29T06:47:33.384Z,101221.38
2023-03-29T06:50:06.568Z,101235.75
2023-03-29T06:52:38.639Z,101194.75
2023-03-29T06:55:12.091Z,101199.38
2023-03-29T06:57:44.974Z,101218.34
2023-03-29T07:00:28.129Z,101143.16
2023-03-29T07:03:08.221Z,101235.84
2023-03-29T07:05:42.291Z,101244.78
2023-03-29T07:08:16.602Z,101249.31
2023-03-29T07:10:53.413Z,101246.72
2023-03-29T07:13:26.376Z,101191.19
2023-03-29T07:15:58.679Z,101153.59
2023-03-29T07:18:30.809Z,101157.25
2023-03-29T07:21:04.868Z,101252.69
2023-03-29T07:23:37.572Z,101209.81
2023-03-29T07:26:10.583Z,101255.56
2023-03-29T07:28:43.415Z,101233.69
2023-03-29T07:31:15.676Z,101237.38
2023-03-29T07:33:52.393Z,101276.78
2023-03-29T07:36:24.533Z,101265.38
2023-03-29T07:39:01.856Z,101270.84
2023-03-29T07:41:33.835Z,101198.97
2023-03-29T07:44:08.953Z,101236.72
2023-03-29T07:46:42.974Z,101293.06
2023-03-29T07:49:15.551Z,101291.41
2023-03-29T07:51:48.122Z,101212.28
2023-03-29T07:54:20.089Z,101265.25
2023-03-29T07:56:52.152Z,101290.53
2023-03-29T07:59:24.200Z,101269.66
2023-03-29T08:01:56.792Z,101294.72
2023-03-29T08:04:28.931Z,101267.19
2023-03-29T08:07:09.714Z,101266.19
2023-03-29T08:09:45.904Z,101292.63
2023-03-29T08:12:17.993Z,101280.94
2023-03-29T08:14:49.925Z,101293.31
2023-03-29T08:17:22.108Z,101275.59
2023-03-29T08:19:55.811Z,101272.06
2023-03-29T08:22:31.358Z,101284.50
2023-03-29T08:25:05.659Z,101309.84
2023-03-29T08:27:38.286Z,101292.94
2023-03-29T08:30:10.857Z,101292.28
2023-03-29T08:32:42.917Z,101264.75
2023-03-29T08:35:14.950Z,101273.88
2023-03-29T08:37:47.313Z,101150.47
2023-03-29T08:40:28.147Z,101235.53
2023-03-29T08:43:50.375Z,101264.41
2023-03-29T08:47:02.002Z,101265.09
2023-03-29T08:49:38.798Z,101250.81
2023-03-29T08:52:46.289Z,101278.56
2023-03-29T08:55:40.170Z,101255.41
2023-03-29T08:58:20.348Z,101243.69
2023-03-29T09:01:00.114Z,101260.44
2023-03-29T09:03:48.073Z,101198.41
2023-03-29T09:06:22.367Z,101269.84
2023-03-29T09:08:56.259Z,101143.66
2023-03-29T09:12:13.495Z,101092.03
2023-03-29T09:14:57.365Z,101262.19
2023-03-29T09:17:50.642Z,101270.25
2023-03-29T09:21:06.923Z,101262.75
2023-03-29T09:24:21.157Z,101242.16
2023-03-29T09:27:16.837Z,101246.91
2023-03-29T09:30:33.842Z,101259.84
2023-03-29T09:33:17.428Z,101271.69
2023-03-29T09:36:08.094Z,101270.13
2023-03-29T09:38:46.594Z,101257.81
2023-03-29T09:41:29.603Z,101281.91
2023-03-29T09:44:20.535Z,101133.63
2023-03-29T09:47:32.797Z,101269.34
2023-03-29T09:50:31.998Z,101169.94
2023-03-29T09:53:05.645Z,101257.44
2023-03-29T09:55:40.715Z,101262.16
2023-03-29T09:58:26.272Z,101212.47
2023-03-29T10:01:03.301Z,101232.53
2023-03-29T10:03:37.141Z,101088.00
2023-03-29T10:06:12.719Z,101279.09
2023-03-29T10:08:54.288Z,101269.88
2023-03-29T10:11:30.763Z,101217.84
2023-03-29T10:14:26.364Z,101269.91
2023-03-29T10:16:58.674Z,101257.44
2023-03-29T10:19:34.809Z,101274.78
2023-03-29T10:22:17.974Z,101272.25
2023-03-29T10:24:53.346Z,101196.69
2023-03-29T10:27:29.257Z,101186.56
2023-03-29T10:30:13.088Z,101135.72
2023-03-29T10:32:45.396Z,101249.97
2023-03-29T10:35:33.474Z,101186.38
2023-03-29T10:38:15.045Z,101086.34
2023-03-29T10:40:53.267Z,101183.00
2023-03-29T10:43:38.435Z,101172.47
2023-03-29T10:46:23.828Z,101201.66
2023-03-29T10:48:58.871Z,101227.97
2023-03-29T10:51:30.969Z,101117.84
2023-03-29T10:54:05.562Z,101195.91
2023-03-29T10:56:47.131Z,101114.38
2023-03-29T11:00:01.501Z,101190.91
2023-03-29T11:02:50.774Z,101196.72
2023-03-29T11:06:08.856Z,101204.00
2023-03-29T11:08:57.339Z,101174.81
2023-03-29T11:12:14.988Z,101198.25
2023-03-29T11:15:21.571Z,101203.75
2023-03-29T11:18:33.778Z,101193.53
2023-03-29T11:21:24.489Z,101177.22
2023-03-29T11:24:29.104Z,101175.00
2023-03-29T11:27:28.753Z,101180.44
2023-03-29T11:30:29.135Z,101184.50
2023-03-29T11:33:29.902Z,101105.38
2023-03-29T11:36:28.534Z,101013.34
2023-03-29T11:39:13.244Z,101073.72
2023-03-29T11:41:56.452Z,101060.56
2023-03-29T11:44:31.630Z,101196.03
2023-03-29T11:47:13.061Z,101033.78
2023-03-29T11:49:56.305Z,101178.81
2023-03-29T11:52:43.052Z,101175.19
2023-03-29T11:55:27.556Z,101094.34
2023-03-29T11:58:11.354Z,101172.66
2023-03-29T12:01:01.829Z,101158.97
2023-03-29T12:03:47.363Z,101160.06
2023-03-29T12:06:28.317Z,101165.50
2023-03-29T12:09:26.992Z,101083.03
2023-03-29T12:12:27.177Z,101139.25
2023-03-29T12:15:11.629Z,101118.78
2023-03-29T12:18:19.393Z,101158.19
2023-03-29T12:21:01.906Z,101132.59
2023-03-29T12:23:34.624Z,101146.44
2023-03-29T12:26:45.970Z,101159.72
2023-03-29T12:29:53.182Z,101154.97
2023-03-29T12:32:43.961Z,101151.38
2023-03-29T12:35:52.973Z,101148.66
2023-03-29T12:38:30.944Z,101056.75
2023-03-29T12:41:26.557Z,101155.53
2023-03-29T12:44:08.955Z,101066.88
2023-03-29T12:46:43.232Z,101130.38
2023-03-29T12:49:42.005Z,101104.09
2023-03-29T12:52:35.453Z,101079.44
2023-03-29T12:55:48.465Z,101102.78
2023-03-29T12:59:07.356Z,101094.06
2023-03-29T13:01:43.821Z,101030.88
2023-03-29T13:04:23.606Z,100983.81
2023-03-29T13:07:05.282Z,101036.63
2023-03-29T13:09:51.253Z,101079.63
2023-03-29T13:12:28.871Z,101001.06
2023-03-29T13:15:19.469Z,101069.03
2023-03-29T13:18:12.267Z,101052.09
2023-03-29T13:21:03.472Z,101057.53
2023-03-29T13:23:59.981Z,101054.78
2023-03-29T13:26:51.881Z,101056.88
2023-03-29T13:29:44.834Z,101055.22
2023-03-29T13:32:29.712Z,101040.81
2023-03-29T13:35:37.757Z,101057.75
2023-03-29T13:38:28.786Z,101035.41
2023-03-29T13:41:07.632Z,101022.97
2023-03-29T13:43:58.897Z,101043.59
2023-03-29T13:46:44.057Z,101010.53
2023-03-29T13:49:25.071Z,100860.94
2023-03-29T13:52:28.227Z,101037.69
2023-03-29T13:55:12.179Z,101034.41
2023-03-29T13:58:04.620Z,101026.50
2023-03-29T14:00:56.060Z,100998.88
2023-03-29T14:03:31.161Z,100874.97
2023-03-29T14:06:04.928Z,100918.75
2023-03-29T14:08:43.898Z,100994.56
2023-03-29T14:11:29.119Z,101027.47
2023-03-29T14:14:10.879Z,100981.19
2023-03-29T14:16:43.183Z,100990.22
2023-03-29T14:19:29.380Z,100915.41
2023-03-29T14:22:08.051Z,100986.84
2023-03-29T14:24:49.673Z,100929.72
2023-03-29T14:27:23.188Z,100925.31
2023-03-29T14:29:58.013Z,100919.97
2023-03-29T14:32:31.898Z,100964.56
2023-03-29T14:35:04.347Z,100791.69
2023-03-29T14:37:50.978Z,100878.19
2023-03-29T14:40:28.022Z,100904.13
2023-03-29T14:43:23.715Z,100982.63
2023-03-29T14:46:05.232Z,100817.09
2023-03-29T14:51:30.641Z,100796.78
2023-03-29T14:54:13.144Z,100813.13
2023-03-29T14:56:48.167Z,100827.56
2023-03-29T14:59:43.586Z,100851.69
2023-03-29T15:02:33.957Z,100910.72
2023-03-29T15:05:33.188Z,100874.28
2023-03-29T15:08:15.629Z,100871.72
2023-03-29T15:10:47.750Z,100780.94
2023-03-29T15:13:24.744Z,100748.19
2023-03-29T15:16:04.452Z,100815.75
2023-03-29T15:18:40.716Z,100744.72
2023-03-29T15:21:21.113Z,100756.22
2023-03-29T15:24:02.141Z,100743.81
2023-03-29T15:26:37.861Z,100845.25
2023-03-29T15:29:13.436Z,100904.94
2023-03-29T15:31:57.405Z,100860.22
2023-03-29T15:34:33.651Z,100870.91
2023-03-29T15:37:12.660Z,100902.03
2023-03-29T15:39:48.261Z,100858.31
2023-03-29T15:42:24.554Z,100841.31
2023-03-29T15:44:56.880Z,100769.31
2023-03-29T15:47:29.120Z,100887.81
2023-03-29T15:50:01.335Z,100772.97
2023-03-29T15:52:36.404Z,100703.53
2023-03-29T15:55:11.852Z,100727.72
2023-03-29T15:57:49.444Z,100767.72
2023-03-29T16:00:22.524Z,100840.00
2023-03-29T16:02:54.926Z,100834.81
2023-03-29T16:05:26.963Z,100830.31
2023-03-29T16:07:59.011Z,100703.97
2023-03-29T16:10:31.059Z,100833.97
2023-03-29T16:13:03.672Z,100841.97
2023-03-29T16:15:36.885Z,100665.88
2023-03-29T16:18:12.078Z,100723.66
2023-03-29T16:20:46.738Z,100683.56
2023-03-29T16:23:18.853Z,100685.31
2023-03-29T16:25:51.349Z,100648.00
2023-03-29T16:28:23.486Z,100753.88
2023-03-29T16:30:56.512Z,100679.19
2023-03-29T16:33:30.935Z,100657.88
2023-03-29T16:36:03.741Z,100690.00
2023-03-29T16:38:38.733Z,100805.72
2023-03-29T16:41:20.450Z,100754.13
2023-03-29T16:44:03.081Z,100655.34
2023-03-29T16:46:36.627Z,100780.72
2023-03-29T16:49:18.222Z,100786.09
2023-03-29T16:51:53.093Z,100799.53
2023-03-29T16:54:29.936Z,100773.59
2023-03-29T16:57:05.506Z,100669.47
2023-03-29T16:59:42.462Z,100645.50
2023-03-29T17:02:14.579Z,100794.97
2023-03-29T17:04:50.065Z,100793.25
2023-03-29T17:07:22.512Z,100700.81
2023-03-29T17:09:55.740Z,100691.88
2023-03-29T17:12:32.217Z,100609.22
2023-03-29T17:15:11.216Z,100656.38
2023-03-29T17:17:43.517Z,100753.34
2023-03-29T17:20:15.912Z,100772.00
2023-03-29T17:22:51.639Z,100748.88
2023-03-29T17:25:24.730Z,100738.19
2023-03-29T17:27:57.343Z,100742.66
2023-03-29T17:30:29.781Z,100691.94
2023-03-29T17:33:02.646Z,100739.94
2023-03-29T17:35:35.914Z,100696.41
2023-03-29T17:38:12.149Z,100690.16
2023-03-29T17:40:44.288Z,100675.06
2023-03-29T17:43:16.249Z,100642.13
2023-03-29T17:45:55.185Z,100750.66
2023-03-29T17:48:28.392Z,100737.31
2023-03-29T17:51:00.520Z,100736.47
2023-03-29T17:53:35.050Z,100673.31
2023-03-29T17:56:11.049Z,100740.88
2023-03-29T17:58:43.179Z,100708.00
2023-03-29T18:01:16.879Z,100581.69
2023-03-29T18:03:55.199Z,100733.72
2023-03-29T18:06:30.791Z,100667.06
2023-03-29T18:09:03.285Z,100739.84
2023-03-29T18:11:36.528Z,100633.44
2023-03-29T18:14:18.874Z,100541.66
2023-03-29T18:16:51.086Z,100688.31
2023-03-29T18:19:26.228Z,100639.28
2023-03-29T18:21:58.557Z,100631.34
2023-03-29T18:24:30.848Z,100627.78
2023-03-29T18:27:03.099Z,100602.06
2023-03-29T18:29:35.957Z,100723.06
2023-03-29T18:32:08.770Z,100686.56
2023-03-29T18:34:40.953Z,100720.34
2023-03-29T18:37:22.015Z,100572.75
2023-03-29T18:39:55.482Z,100572.69
2023-03-29T18:42:27.655Z,100558.53
2023-03-29T18:45:04.945Z,100574.50
2023-03-29T18:47:37.168Z,100642.97
2023-03-29T18:50:10.513Z,100709.69
2023-03-29T18:52:42.586Z,100635.91
2023-03-29T18:55:17.937Z,100564.66
2023-03-29T18:57:50.189Z,100706.84
2023-03-29T19:00:23.085Z,100709.59
2023-03-29T19:02:57.979Z,100581.59
2023-03-29T19:05:31.129Z,100704.19
2023-03-29T19:08:09.478Z,100654.44
2023-03-29T19:10:44.587Z,100564.66
2023-03-29T19:13:17.112Z,100708.72
2023-03-29T19:15:55.265Z,100526.34
2023-03-29T19:18:27.797Z,100688.22
2023-03-29T19:21:10.454Z,100531.75
2023-03-29T19:23:42.996Z,100656.22
2023-03-29T19:26:18.454Z,100683.81
2023-03-29T19:28:54.012Z,100669.56
2023-03-29T19:31:27.692Z,100620.66
2023-03-29T19:34:23.971Z,100608.28
2023-03-29T19:37:00.936Z,100624.31
2023-03-29T19:39:33.135Z,100560.34
2023-03-29T19:42:05.922Z,100659.94
2023-03-29T19:44:38.561Z,100485.78
2023-03-29T19:47:10.808Z,100606.69
2023-03-29T19:49:43.585Z,100601.28
2023-03-29T19:52:23.042Z,100473.34
2023-03-29T19:55:09.123Z,100534.69
2023-03-29T19:57:42.723Z,100541.66
2023-03-29T20:00:18.099Z,100544.41
2023-03-29T20:02:52.844Z,100628.91
2023-03-29T20:05:25.674Z,100602.25
2023-03-29T20:07:57.849Z,100464.47
2023-03-29T20:10:30.023Z,100458.25
2023-03-29T20:13:09.043Z,100471.63
2023-03-29T20:15:48.741Z,100452.16
2023-03-29T20:18:23.855Z,100545.44
2023-03-29T20:20:59.981Z,100530.78
2023-03-29T20:23:34.312Z,100436.41
2023-03-29T20:26:10.620Z,100496.75
2023-03-29T20:28:42.901Z,100532.25
2023-03-29T20:31:15.142Z,100582.03
2023-03-29T20:33:47.327Z,100578.47
2023-03-29T20:36:25.953Z,100505.69
2023-03-29T20:39:01.272Z,100551.97
2023-03-29T20:41:34.003Z,100449.84
2023-03-29T20:44:08.636Z,100513.84
2023-03-29T20:46:55.107Z,100526.25
2023-03-29T20:49:27.166Z,100541.25
2023-03-29T20:51:59.131Z,100544.00
2023-03-29T20:54:33.301Z,100459.66
2023-03-29T20:57:09.834Z,100537.78
2023-03-29T20:59:44.216Z,100465.91
2023-03-29T21:02:22.307Z,100521.78
2023-03-29T21:04:56.928Z,100462.25
2023-03-29T21:07:30.448Z,100368.16
2023-03-29T21:10:03.036Z,100420.56
2023-03-29T21:12:37.509Z,100359.25
2023-03-29T21:15:11.188Z,100515.56
2023-03-29T21:17:46.349Z,100522.66
2023-03-29T21:20:21.569Z,100501.34
2023-03-29T21:22:53.729Z,100514.66
2023-03-29T21:25:25.914Z,100379.63
2023-03-29T21:28:03.734Z,100521.75
2023-03-29T21:30:36.571Z,100509.38
2023-03-29T21:33:08.774Z,100510.28
2023-03-29T21:35:41.033Z,100404.66
2023-03-29T21:38:13.045Z,100499.69
2023-03-29T21:40:45.167Z,100505.91
2023-03-29T21:43:17.485Z,100476.69
2023-03-29T21:45:50.644Z,100475.84
2023-03-29T21:48:22.611Z,100481.22
2023-03-29T21:50:55.415Z,100490.00
2023-03-29T21:53:27.678Z,100488.19
2023-03-29T21:56:00.283Z,100464.31
2023-03-29T21:58:34.580Z,100382.69
2023-03-29T22:01:09.961Z,100454.56
2023-03-29T22:03:42.256Z,100471.44
2023-03-29T22:06:14.868Z,100408.44
2023-03-29T22:08:49.584Z,100398.69
2023-03-29T22:11:23.335Z,100403.13
2023-03-29T22:13:58.870Z,100469.72
2023-03-29T22:16:31.422Z,100470.59
2023-03-29T22:19:04.639Z,100372.00
2023-03-29T22:21:39.407Z,100475.84
2023-03-29T22:24:11.531Z,100472.28
2023-03-29T22:26:49.066Z,100461.72
2023-03-29T22:29:21.396Z,100393.34
2023-03-29T22:31:53.469Z,100378.25
2023-03-29T22:34:25.766Z,100381.75
2023-03-29T22:36:57.728Z,100404.81
2023-03-29T22:39:29.913Z,100449.25
2023-03-29T22:42:02.036Z,100422.69
2023-03-29T22:44:34.108Z,100447.53
2023-03-29T22:47:09.277Z,100445.72
2023-03-29T22:49:41.502Z,100454.56
2023-03-29T22:52:13.542Z,100412.88
2023-03-29T22:54:45.620Z,100436.78
2023-03-29T22:57:17.678Z,100334.81
2023-03-29T22:59:49.671Z,100420.91
2023-03-29T23:02:21.767Z,100420.88
2023-03-29T23:04:53.962Z,100444.00
2023-03-29T23:07:26.226Z,100411.19
2023-03-29T23:09:58.445Z,100415.59
2023-03-29T23:12:31.231Z,100434.22
2023-03-29T23:15:08.097Z,100432.50
2023-03-29T23:17:40.185Z,100433.38
2023-03-29T23:20:12.622Z,100410.38
2023-03-29T23:22:44.974Z,100334.09
2023-03-29T23:25:18.254Z,100429.84
2023-03-29T23:27:50.649Z,100401.44
2023-03-29T23:30:23.412Z,100421.00
2023-03-29T23:32:58.296Z,100418.31
2023-03-29T23:35:30.400Z,100420.94
2023-03-29T23:38:02.516Z,100389.09
2023-03-29T23:40:34.493Z,100417.44
2023-03-29T23:43:06.606Z,100421.94
2023-03-29T23:45:39.643Z,100340.34
2023-03-29T23:48:11.583Z,100409.63
2023-03-29T23:50:46.346Z,100362.78
2023-03-29T23:53:19.880Z,100400.06
2023-03-29T23:55:52.122Z,100268.72
2023-03-29T23:58:24.696Z,100360.06
